Time;durP1;ratioP1;P1;durP2;ratioP2;P2;SDS_P1;SDS_P2;PMS_P1;PMS_P2;Temp;Humidity;BMP_temperature;BMP_pressure;BME280_temperature;BME280_humidity;BME280_pressure;Samples;Min_cycle;Max_cycle;Signal;HPM_P1;HPM_P2
2022/06/19 00:02:24;;;;;;;11.57;2.25;;;;;;;;;;5039504;28;20052;-72
2022/06/19 00:04:51;;;;;;;9.07;2.15;;;;;;;;;;5038381;28;20029;-71
2022/06/19 00:07:16;;;;;;;7.30;1.73;;;;;;;;;;5040363;28;20017;-71
2022/06/19 00:09:41;;;;;;;9.35;2.28;;;;;;;;;;5039698;28;20025;-72
2022/06/19 00:12:07;;;;;;;9.23;2.30;;;;;;;;;;5045207;28;20021;-72
2022/06/19 00:14:34;;;;;;;8.13;2.15;;;;;;;;;;5041196;28;20707;-72
2022/06/19 00:16:59;;;;;;;7.68;1.95;;;;;;;;;;5037496;28;20017;-71
2022/06/19 00:19:24;;;;;;;7.78;1.80;;;;;;;;;;5043368;28;20028;-72
2022/06/19 00:21:49;;;;;;;12.82;2.22;;;;;;;;;;5039838;28;20527;-69
2022/06/19 00:24:14;;;;;;;11.98;2.00;;;;;;;;;;5041159;28;20052;-69
2022/06/19 00:26:40;;;;;;;7.40;1.60;;;;;;;;;;5040495;28;20112;-72
2022/06/19 00:29:05;;;;;;;5.57;2.03;;;;;;;;;;5047385;28;20478;-73
2022/06/19 00:31:30;;;;;;;10.60;2.00;;;;;;;;;;5042083;28;20074;-72
2022/06/19 00:33:55;;;;;;;11.38;1.85;;;;;;;;;;5038551;28;20387;-72
2022/06/19 00:36:21;;;;;;;9.90;1.70;;;;;;;;;;5039723;28;20017;-73
2022/06/19 00:38:47;;;;;;;9.82;2.22;;;;;;;;;;5043518;28;20136;-71
2022/06/19 00:41:12;;;;;;;8.98;1.67;;;;;;;;;;5028180;28;20075;-71
2022/06/19 00:44:03;;;;;;;11.87;2.10;;;;;;;;;;5044954;28;20028;-70
2022/06/19 00:46:55;;;;;;;12.75;2.47;;;;;;;;;;5034145;28;20753;-72
2022/06/19 00:49:34;;;;;;;7.97;1.98;;;;;;;;;;5037250;28;20041;-72
2022/06/19 00:52:03;;;;;;;10.93;2.03;;;;;;;;;;5040031;28;20033;-73
2022/06/19 00:54:31;;;;;;;19.88;2.63;;;;;;;;;;5024834;28;20132;-71
2022/06/19 00:56:56;;;;;;;9.98;2.15;;;;;;;;;;5039949;28;20070;-72
2022/06/19 00:59:22;;;;;;;4.95;2.30;;;;;;;;;;5036547;28;20017;-72
2022/06/19 01:01:47;;;;;;;7.47;1.52;;;;;;;;;;5041134;28;20482;-71
2022/06/19 01:04:29;;;;;;;8.85;1.85;;;;;;;;;;5043810;28;20519;-72
2022/06/19 01:06:54;;;;;;;8.48;1.67;;;;;;;;;;5041792;28;20463;-72
2022/06/19 01:09:20;;;;;;;5.65;1.80;;;;;;;;;;5041088;28;20029;-70
2022/06/19 01:11:45;;;;;;;17.67;2.77;;;;;;;;;;5025721;28;20732;-74
2022/06/19 01:14:13;;;;;;;15.38;2.70;;;;;;;;;;5043874;28;20032;-72
2022/06/19 01:16:38;;;;;;;7.70;1.83;;;;;;;;;;5028053;28;20012;-72
2022/06/19 01:19:05;;;;;;;8.33;2.00;;;;;;;;;;5043332;28;20021;-71
2022/06/19 01:21:42;;;;;;;8.75;1.98;;;;;;;;;;5041423;28;20033;-71
2022/06/19 01:24:10;;;;;;;8.10;1.55;;;;;;;;;;5041102;28;20032;-71
2022/06/19 01:26:39;;;;;;;15.02;3.95;;;;;;;;;;5040053;28;20081;-72
2022/06/19 01:29:04;;;;;;;8.27;1.95;;;;;;;;;;5040866;28;20029;-72
2022/06/19 01:31:32;;;;;;;8.57;2.25;;;;;;;;;;5044047;28;20473;-70
2022/06/19 01:33:59;;;;;;;9.07;2.13;;;;;;;;;;5045863;28;20566;-72
2022/06/19 01:36:25;;;;;;;10.50;2.15;;;;;;;;;;5043837;28;21294;-71
2022/06/19 01:38:52;;;;;;;6.18;1.50;;;;;;;;;;5039747;28;20525;-72
2022/06/19 01:41:36;;;;;;;8.27;2.13;;;;;;;;;;5042183;28;20071;-70
2022/06/19 01:44:01;;;;;;;6.50;1.75;;;;;;;;;;5024417;28;20139;-72
2022/06/19 01:46:27;;;;;;;9.97;2.03;;;;;;;;;;5039418;28;20119;-69
2022/06/19 01:48:53;;;;;;;5.30;1.77;;;;;;;;;;5040085;28;22143;-76
2022/06/19 01:51:18;;;;;;;9.82;1.75;;;;;;;;;;5039085;28;20021;-73
2022/06/19 01:53:45;;;;;;;6.00;1.70;;;;;;;;;;5043895;28;20390;-72
2022/06/19 01:56:11;;;;;;;5.80;1.48;;;;;;;;;;5042653;28;20270;-71
2022/06/19 01:58:39;;;;;;;11.18;2.15;;;;;;;;;;5025321;28;20088;-68
2022/06/19 02:01:06;;;;;;;8.18;1.90;;;;;;;;;;5024928;28;20544;-71
2022/06/19 02:03:35;;;;;;;8.35;2.17;;;;;;;;;;5038768;28;20467;-72
2022/06/19 02:06:00;;;;;;;9.10;1.67;;;;;;;;;;5028117;28;20428;-75
2022/06/19 02:08:27;;;;;;;9.25;1.80;;;;;;;;;;5026051;28;20040;-74
2022/06/19 02:10:53;;;;;;;8.70;2.17;;;;;;;;;;5026913;28;20025;-71
2022/06/19 02:13:19;;;;;;;17.05;1.70;;;;;;;;;;5045436;28;20112;-73
2022/06/19 02:15:45;;;;;;;10.05;1.58;;;;;;;;;;5044489;28;20174;-72
2022/06/19 02:18:13;;;;;;;11.13;1.90;;;;;;;;;;5042881;28;20107;-71
2022/06/19 02:20:38;;;;;;;9.25;2.13;;;;;;;;;;5042758;28;20049;-70
2022/06/19 02:23:05;;;;;;;7.10;1.77;;;;;;;;;;5045175;28;20744;-71
2022/06/19 02:25:31;;;;;;;10.93;2.17;;;;;;;;;;5045706;28;20301;-72
2022/06/19 02:27:56;;;;;;;6.53;1.40;;;;;;;;;;5033639;28;20141;-72
2022/06/19 02:30:21;;;;;;;9.40;1.73;;;;;;;;;;5043105;28;20103;-72
2022/06/19 02:32:48;;;;;;;7.70;1.80;;;;;;;;;;5028533;28;20282;-73
2022/06/19 02:35:15;;;;;;;10.48;1.98;;;;;;;;;;5029676;28;20285;-72
2022/06/19 02:37:43;;;;;;;11.52;2.88;;;;;;;;;;5042311;28;20032;-72
2022/06/19 02:40:27;;;;;;;12.88;1.80;;;;;;;;;;5049823;28;20009;-67
2022/06/19 02:42:52;;;;;;;8.77;1.40;;;;;;;;;;5042177;28;20051;-73
2022/06/19 02:45:19;;;;;;;7.00;1.33;;;;;;;;;;5043863;28;20041;-72
2022/06/19 02:47:46;;;;;;;10.25;1.50;;;;;;;;;;5045537;28;20104;-72
2022/06/19 02:50:13;;;;;;;4.28;1.30;;;;;;;;;;5048661;28;20546;-72
2022/06/19 02:52:38;;;;;;;4.82;1.33;;;;;;;;;;5044465;28;20024;-72
2022/06/19 02:55:04;;;;;;;8.80;2.00;;;;;;;;;;5042499;28;20024;-72
2022/06/19 02:57:29;;;;;;;11.90;1.52;;;;;;;;;;5040642;28;20272;-72
2022/06/19 02:59:55;;;;;;;7.50;1.60;;;;;;;;;;5037982;28;20055;-72
2022/06/19 03:02:20;;;;;;;10.65;1.27;;;;;;;;;;5031641;28;20270;-71
2022/06/19 03:04:49;;;;;;;9.07;1.80;;;;;;;;;;5023164;28;20334;-72
2022/06/19 03:07:14;;;;;;;9.35;1.77;;;;;;;;;;5038077;28;20460;-72
2022/06/19 03:09:39;;;;;;;8.83;1.53;;;;;;;;;;5040493;28;20411;-72
2022/06/19 03:12:04;;;;;;;8.43;1.67;;;;;;;;;;5038149;28;20305;-72
2022/06/19 03:14:29;;;;;;;13.70;2.95;;;;;;;;;;5039885;28;20536;-72
2022/06/19 03:16:55;;;;;;;11.00;1.70;;;;;;;;;;5037975;28;20018;-72
2022/06/19 03:19:20;;;;;;;9.93;1.90;;;;;;;;;;5023226;28;20120;-71
2022/06/19 03:21:45;;;;;;;8.27;1.30;;;;;;;;;;5038383;28;20463;-73
2022/06/19 03:24:10;;;;;;;4.63;1.15;;;;;;;;;;5041646;28;20036;-71
2022/06/19 03:26:36;;;;;;;8.45;1.70;;;;;;;;;;5035542;28;20068;-73
2022/06/19 03:29:01;;;;;;;7.70;1.50;;;;;;;;;;5040910;28;20037;-73
2022/06/19 03:31:27;;;;;;;8.95;1.20;;;;;;;;;;5037552;28;20086;-72
2022/06/19 03:33:53;;;;;;;6.10;1.17;;;;;;;;;;5037411;28;20068;-72
2022/06/19 03:36:18;;;;;;;5.65;1.20;;;;;;;;;;5038199;28;20028;-74
2022/06/19 03:38:43;;;;;;;5.00;1.20;;;;;;;;;;5024188;28;20045;-72
2022/06/19 03:41:09;;;;;;;7.23;1.20;;;;;;;;;;5019129;28;20301;-72
2022/06/19 03:43:34;;;;;;;5.13;0.90;;;;;;;;;;5039852;28;20032;-71
2022/06/19 03:46:00;;;;;;;6.90;1.38;;;;;;;;;;5034315;28;20036;-75
2022/06/19 03:48:25;;;;;;;6.40;1.15;;;;;;;;;;5036710;28;20064;-72
2022/06/19 03:50:51;;;;;;;6.63;1.48;;;;;;;;;;5038144;28;20450;-72
2022/06/19 03:53:16;;;;;;;5.13;1.05;;;;;;;;;;5022830;28;20027;-72
2022/06/19 03:55:41;;;;;;;8.00;1.30;;;;;;;;;;5039539;28;20517;-72
2022/06/19 03:58:07;;;;;;;8.20;1.40;;;;;;;;;;5045430;28;20033;-72
2022/06/19 04:00:32;;;;;;;7.20;0.98;;;;;;;;;;5040211;28;20601;-71
2022/06/19 04:02:58;;;;;;;8.15;1.40;;;;;;;;;;5040913;28;20028;-70
2022/06/19 04:05:23;;;;;;;7.90;1.50;;;;;;;;;;5038236;28;20381;-72
2022/06/19 04:07:49;;;;;;;7.73;1.23;;;;;;;;;;5038023;28;20452;-73
2022/06/19 04:10:15;;;;;;;5.10;0.90;;;;;;;;;;5040675;28;20376;-71
2022/06/19 04:12:40;;;;;;;6.63;1.38;;;;;;;;;;5038894;28;20434;-72
2022/06/19 04:15:06;;;;;;;8.70;1.40;;;;;;;;;;5036594;28;20029;-71
2022/06/19 04:17:31;;;;;;;6.93;1.63;;;;;;;;;;5038594;28;20358;-71
2022/06/19 04:19:56;;;;;;;4.15;1.40;;;;;;;;;;5036406;28;20025;-72
2022/06/19 04:22:22;;;;;;;5.68;1.20;;;;;;;;;;5037939;28;20025;-72
2022/06/19 04:24:48;;;;;;;8.07;1.30;;;;;;;;;;5039017;28;20019;-73
2022/06/19 04:27:13;;;;;;;7.57;1.50;;;;;;;;;;5038967;28;20743;-72
2022/06/19 04:29:38;;;;;;;4.28;1.20;;;;;;;;;;5033520;28;20025;-73
2022/06/19 04:32:03;;;;;;;6.30;1.93;;;;;;;;;;5038885;28;20075;-71
2022/06/19 04:34:28;;;;;;;6.68;1.00;;;;;;;;;;5041685;28;20151;-72
2022/06/19 04:36:54;;;;;;;5.47;1.35;;;;;;;;;;5047942;28;20514;-74
2022/06/19 04:39:19;;;;;;;7.32;1.50;;;;;;;;;;5041718;28;20028;-70
2022/06/19 04:41:44;;;;;;;4.40;1.40;;;;;;;;;;5039299;28;20040;-72
2022/06/19 04:44:14;;;;;;;6.05;1.10;;;;;;;;;;5042428;28;20051;-72
2022/06/19 04:46:40;;;;;;;9.15;2.13;;;;;;;;;;5040466;28;20491;-71
2022/06/19 04:49:05;;;;;;;9.55;1.50;;;;;;;;;;5046636;28;20024;-70
2022/06/19 04:51:30;;;;;;;15.40;2.03;;;;;;;;;;5043959;28;20044;-72
2022/06/19 04:53:55;;;;;;;6.00;1.33;;;;;;;;;;5043815;28;20033;-74
2022/06/19 04:56:21;;;;;;;8.70;1.30;;;;;;;;;;5044634;28;20735;-71
2022/06/19 04:58:46;;;;;;;5.78;1.10;;;;;;;;;;5046017;28;20043;-69
2022/06/19 05:01:14;;;;;;;3.95;0.90;;;;;;;;;;5028031;28;20032;-71
2022/06/19 05:03:39;;;;;;;9.98;1.23;;;;;;;;;;5041789;28;20866;-69
2022/06/19 05:06:05;;;;;;;4.90;1.40;;;;;;;;;;5039677;28;20108;-70
2022/06/19 05:08:30;;;;;;;7.32;1.50;;;;;;;;;;5040289;28;20041;-71
2022/06/19 05:10:55;;;;;;;5.47;1.10;;;;;;;;;;5043144;28;20170;-70
2022/06/19 05:13:22;;;;;;;10.37;1.90;;;;;;;;;;5043556;28;20206;-71
2022/06/19 05:15:48;;;;;;;7.65;1.45;;;;;;;;;;5024685;28;20147;-72
2022/06/19 05:18:13;;;;;;;8.70;2.17;;;;;;;;;;5041484;28;20025;-67
2022/06/19 05:20:38;;;;;;;12.32;2.25;;;;;;;;;;5043193;28;20013;-71
2022/06/19 05:23:04;;;;;;;8.30;1.27;;;;;;;;;;5039129;28;20553;-70
2022/06/19 05:25:29;;;;;;;5.63;1.25;;;;;;;;;;5040985;28;20028;-70
2022/06/19 05:27:54;;;;;;;7.70;1.38;;;;;;;;;;5041354;28;20037;-69
2022/06/19 05:30:20;;;;;;;9.37;1.50;;;;;;;;;;5041135;28;20041;-72
2022/06/19 05:32:45;;;;;;;7.40;1.30;;;;;;;;;;5039931;28;20033;-71
2022/06/19 05:35:10;;;;;;;6.90;1.70;;;;;;;;;;5038534;28;20151;-70
2022/06/19 05:37:35;;;;;;;5.90;1.55;;;;;;;;;;5041760;28;20355;-71
2022/06/19 05:40:01;;;;;;;10.23;1.53;;;;;;;;;;5043212;28;20111;-70
2022/06/19 05:42:26;;;;;;;6.85;1.52;;;;;;;;;;5043221;28;20266;-72
2022/06/19 05:44:52;;;;;;;9.18;1.50;;;;;;;;;;5036404;28;20086;-70
2022/06/19 05:47:17;;;;;;;8.43;1.60;;;;;;;;;;5042010;28;20060;-71
2022/06/19 05:49:42;;;;;;;8.88;1.92;;;;;;;;;;5041833;28;20285;-71
2022/06/19 05:52:22;;;;;;;4.30;1.07;;;;;;;;;;5025602;28;20021;-71
2022/06/19 05:54:47;;;;;;;8.95;1.30;;;;;;;;;;5038873;28;20277;-71
2022/06/19 05:57:13;;;;;;;4.97;1.00;;;;;;;;;;5039376;28;20021;-71
2022/06/19 05:59:38;;;;;;;12.88;1.58;;;;;;;;;;5041333;28;20341;-70
2022/06/19 06:02:04;;;;;;;5.05;1.20;;;;;;;;;;5043949;28;20021;-70
2022/06/19 06:04:29;;;;;;;8.98;1.02;;;;;;;;;;5045008;28;20387;-71
2022/06/19 06:06:54;;;;;;;10.53;1.23;;;;;;;;;;5040104;28;20090;-71
2022/06/19 06:09:19;;;;;;;11.83;1.80;;;;;;;;;;5041345;28;20041;-71
2022/06/19 06:11:44;;;;;;;7.73;1.23;;;;;;;;;;5037798;28;20065;-71
2022/06/19 06:14:10;;;;;;;6.73;1.20;;;;;;;;;;5040434;28;20033;-71
2022/06/19 06:16:35;;;;;;;8.57;1.37;;;;;;;;;;5038519;28;20031;-70
2022/06/19 06:19:00;;;;;;;11.07;1.67;;;;;;;;;;5041728;28;20584;-71
2022/06/19 06:21:25;;;;;;;9.30;1.52;;;;;;;;;;5041412;28;20109;-71
2022/06/19 06:23:51;;;;;;;6.47;1.05;;;;;;;;;;5038428;28;20890;-71
2022/06/19 06:26:18;;;;;;;7.93;1.85;;;;;;;;;;5044139;28;20147;-71
2022/06/19 06:28:45;;;;;;;7.78;1.50;;;;;;;;;;5038016;28;20029;-71
2022/06/19 06:31:10;;;;;;;7.82;1.63;;;;;;;;;;5040444;28;20063;-71
2022/06/19 06:33:36;;;;;;;2.67;0.95;;;;;;;;;;5034801;28;20479;-71
2022/06/19 06:36:01;;;;;;;13.70;1.80;;;;;;;;;;5037262;28;20047;-71
2022/06/19 06:38:26;;;;;;;7.63;1.40;;;;;;;;;;5036875;28;20467;-71
2022/06/19 06:40:52;;;;;;;6.28;1.35;;;;;;;;;;5042697;28;20515;-71
2022/06/19 06:43:17;;;;;;;4.70;1.10;;;;;;;;;;5039554;28;20036;-71
2022/06/19 06:45:43;;;;;;;3.65;0.90;;;;;;;;;;5041093;28;20071;-72
2022/06/19 06:48:08;;;;;;;11.93;1.25;;;;;;;;;;5046019;28;20025;-71
2022/06/19 06:50:34;;;;;;;5.13;1.00;;;;;;;;;;5053964;28;20022;-71
2022/06/19 06:52:59;;;;;;;7.72;1.58;;;;;;;;;;5045103;28;20025;-72
2022/06/19 06:55:24;;;;;;;7.22;1.25;;;;;;;;;;5048529;28;20051;-72
2022/06/19 06:57:50;;;;;;;3.95;1.20;;;;;;;;;;5046927;28;20930;-73
2022/06/19 07:00:16;;;;;;;5.28;0.90;;;;;;;;;;5047289;28;20017;-71
2022/06/19 07:02:42;;;;;;;5.13;1.02;;;;;;;;;;5048174;28;20017;-71
2022/06/19 07:05:07;;;;;;;6.10;1.13;;;;;;;;;;5039888;28;20055;-71
2022/06/19 07:07:32;;;;;;;6.28;0.90;;;;;;;;;;5022906;28;20566;-71
2022/06/19 07:09:58;;;;;;;5.97;0.80;;;;;;;;;;5042124;28;20026;-70
2022/06/19 07:12:23;;;;;;;16.47;1.70;;;;;;;;;;5040729;28;20417;-73
2022/06/19 07:14:48;;;;;;;5.63;1.17;;;;;;;;;;5038055;28;20386;-72
2022/06/19 07:17:13;;;;;;;8.57;1.30;;;;;;;;;;5041730;28;20052;-71
2022/06/19 07:19:38;;;;;;;8.57;1.30;;;;;;;;;;5042575;28;20265;-72
2022/06/19 07:22:04;;;;;;;11.90;2.00;;;;;;;;;;5041680;28;21173;-71
2022/06/19 07:24:29;;;;;;;6.00;1.50;;;;;;;;;;5044627;28;20033;-71
2022/06/19 07:26:54;;;;;;;4.70;1.20;;;;;;;;;;5045969;28;20059;-72
2022/06/19 07:29:19;;;;;;;8.70;1.43;;;;;;;;;;5041804;28;20040;-74
2022/06/19 07:31:44;;;;;;;9.13;1.90;;;;;;;;;;5038139;28;20029;-72
2022/06/19 07:34:09;;;;;;;5.63;1.83;;;;;;;;;;5043603;28;20278;-72
2022/06/19 07:36:35;;;;;;;7.67;1.43;;;;;;;;;;5046998;28;20036;-72
2022/06/19 07:39:00;;;;;;;5.55;1.50;;;;;;;;;;5043599;28;20309;-72
2022/06/19 07:41:25;;;;;;;8.83;1.40;;;;;;;;;;5041547;28;20017;-72
2022/06/19 07:43:51;;;;;;;7.75;1.40;;;;;;;;;;5040885;28;20270;-71
2022/06/19 07:46:17;;;;;;;10.20;2.28;;;;;;;;;;5040909;28;20051;-71
2022/06/19 07:51:27;;;;;;;;;;;;;;;;;;5038163;28;20035;-72
2022/06/19 07:53:52;;;;;;;9.13;1.35;;;;;;;;;;5024983;28;19921;-71
2022/06/19 07:56:17;;;;;;;13.37;2.07;;;;;;;;;;5040790;28;20032;-70
2022/06/19 07:58:43;;;;;;;7.78;1.58;;;;;;;;;;5041190;28;20269;-71
2022/06/19 08:01:08;;;;;;;7.82;1.60;;;;;;;;;;5028493;28;20025;-71
2022/06/19 08:03:33;;;;;;;8.88;1.73;;;;;;;;;;5027853;28;20029;-71
2022/06/19 08:05:59;;;;;;;7.20;1.50;;;;;;;;;;5043920;28;20036;-71
2022/06/19 08:08:25;;;;;;;10.63;1.70;;;;;;;;;;5038647;28;20273;-72
2022/06/19 08:10:51;;;;;;;6.00;1.50;;;;;;;;;;5044150;28;20040;-72
2022/06/19 08:13:20;;;;;;;12.18;2.10;;;;;;;;;;5039624;28;20048;-74
2022/06/19 08:15:47;;;;;;;9.77;2.22;;;;;;;;;;5039711;28;20450;-72
2022/06/19 08:18:12;;;;;;;10.23;2.55;;;;;;;;;;5038507;28;20066;-72
2022/06/19 08:20:37;;;;;;;14.35;3.92;;;;;;;;;;5039294;28;20012;-73
2022/06/19 08:23:03;;;;;;;7.82;1.95;;;;;;;;;;5041870;28;20029;-74
2022/06/19 08:25:28;;;;;;;18.15;3.53;;;;;;;;;;5041292;28;20070;-74
2022/06/19 08:27:53;;;;;;;14.80;2.15;;;;;;;;;;5023258;28;20032;-75
2022/06/19 08:30:24;;;;;;;13.00;3.23;;;;;;;;;;5040987;28;20024;-75
2022/06/19 08:32:50;;;;;;;8.25;2.88;;;;;;;;;;5036232;28;20278;-74
2022/06/19 08:35:15;;;;;;;5.60;2.05;;;;;;;;;;5040431;28;20024;-72
2022/06/19 08:37:41;;;;;;;7.32;2.10;;;;;;;;;;5041078;28;20944;-76
2022/06/19 08:40:12;;;;;;;14.98;2.45;;;;;;;;;;5022889;28;20021;-74
2022/06/19 08:42:47;;;;;;;10.57;3.03;;;;;;;;;;5035824;28;20070;-73
2022/06/19 08:45:12;;;;;;;7.90;2.75;;;;;;;;;;5041840;28;20028;-73
2022/06/19 08:47:46;;;;;;;11.50;2.53;;;;;;;;;;5037336;28;20013;-73
2022/06/19 08:50:31;;;;;;;12.40;2.80;;;;;;;;;;5040012;28;20273;-76
2022/06/19 08:53:08;;;;;;;16.65;3.15;;;;;;;;;;5039701;28;20040;-75
2022/06/19 08:55:33;;;;;;;12.80;2.83;;;;;;;;;;5037801;28;21464;-76
2022/06/19 08:58:17;;;;;;;12.57;2.97;;;;;;;;;;5035108;28;20028;-76
2022/06/19 09:00:53;;;;;;;14.32;4.65;;;;;;;;;;5041253;28;20025;-76
2022/06/19 09:03:19;;;;;;;9.27;2.88;;;;;;;;;;5039564;28;20507;-77
2022/06/19 09:05:47;;;;;;;9.23;3.07;;;;;;;;;;5038296;28;20033;-76
2022/06/19 09:08:31;;;;;;;9.93;2.40;;;;;;;;;;5039097;28;20032;-76
2022/06/19 09:10:58;;;;;;;13.75;2.35;;;;;;;;;;5040278;28;20634;-75
2022/06/19 09:13:43;;;;;;;11.07;3.05;;;;;;;;;;5039422;28;20111;-75
2022/06/19 09:16:28;;;;;;;7.25;2.13;;;;;;;;;;5041720;28;20579;-74
2022/06/19 09:18:59;;;;;;;4.40;1.80;;;;;;;;;;5039383;28;20025;-75
2022/06/19 09:21:41;;;;;;;12.27;2.80;;;;;;;;;;5035186;28;20021;-74
2022/06/19 09:24:21;;;;;;;10.35;2.50;;;;;;;;;;5038564;28;20028;-73
2022/06/19 09:27:00;;;;;;;7.88;2.00;;;;;;;;;;5034432;28;20025;-73
2022/06/19 09:29:31;;;;;;;10.75;2.55;;;;;;;;;;5033988;28;20040;-75
2022/06/19 09:31:57;;;;;;;13.10;2.90;;;;;;;;;;5037732;28;20109;-73
2022/06/19 09:34:38;;;;;;;11.75;2.20;;;;;;;;;;5035632;28;20032;-75
2022/06/19 09:37:08;;;;;;;12.15;2.30;;;;;;;;;;5041410;28;20492;-75
2022/06/19 09:39:46;;;;;;;8.55;1.90;;;;;;;;;;5038913;28;20033;-72
2022/06/19 09:42:18;;;;;;;11.02;2.03;;;;;;;;;;5039165;28;20113;-74
2022/06/19 09:44:52;;;;;;;9.63;1.95;;;;;;;;;;5039134;28;20493;-73
2022/06/19 09:47:17;;;;;;;7.80;2.08;;;;;;;;;;5035849;28;20026;-73
2022/06/19 09:49:46;;;;;;;7.87;1.87;;;;;;;;;;5037974;28;20047;-73
2022/06/19 09:52:15;;;;;;;5.32;1.38;;;;;;;;;;5033399;28;20036;-72
2022/06/19 09:54:40;;;;;;;6.00;1.70;;;;;;;;;;5040849;28;20025;-75
2022/06/19 09:57:05;;;;;;;7.05;1.60;;;;;;;;;;5035697;28;20653;-72
2022/06/19 09:59:37;;;;;;;7.97;2.08;;;;;;;;;;5034323;28;20025;-73
2022/06/19 10:02:11;;;;;;;6.13;1.73;;;;;;;;;;5015723;28;20031;-72
2022/06/19 10:04:43;;;;;;;8.40;1.70;;;;;;;;;;5039031;28;20024;-72
2022/06/19 10:07:15;;;;;;;6.18;1.58;;;;;;;;;;5032592;28;20025;-71
2022/06/19 10:09:47;;;;;;;4.70;1.70;;;;;;;;;;5033499;28;20068;-73
2022/06/19 10:12:22;;;;;;;5.40;1.77;;;;;;;;;;5038939;28;20024;-73
2022/06/19 10:14:49;;;;;;;5.13;1.40;;;;;;;;;;5034139;28;20020;-73
2022/06/19 10:17:37;;;;;;;8.68;1.48;;;;;;;;;;5039421;28;20013;-71
2022/06/19 10:20:15;;;;;;;7.47;1.40;;;;;;;;;;5025440;28;20041;-72
2022/06/19 10:22:49;;;;;;;7.50;2.22;;;;;;;;;;5037669;28;20060;-71
2022/06/19 10:25:28;;;;;;;7.07;1.27;;;;;;;;;;5037821;28;20683;-71
2022/06/19 10:27:53;;;;;;;5.22;1.25;;;;;;;;;;5036888;28;20083;-72
2022/06/19 10:30:22;;;;;;;7.40;1.50;;;;;;;;;;5035609;28;20033;-71
2022/06/19 10:33:06;;;;;;;3.45;1.20;;;;;;;;;;5034641;28;20269;-74
2022/06/19 10:35:44;;;;;;;4.72;1.42;;;;;;;;;;5036152;28;20378;-72
2022/06/19 10:38:15;;;;;;;6.20;1.10;;;;;;;;;;5033411;28;20101;-72
2022/06/19 10:41:03;;;;;;;3.85;1.15;;;;;;;;;;5019620;28;20429;-71
2022/06/19 10:43:28;;;;;;;4.40;1.20;;;;;;;;;;5036086;28;20064;-72
2022/06/19 10:45:57;;;;;;;5.88;1.30;;;;;;;;;;5033218;28;20096;-69
2022/06/19 10:48:27;;;;;;;4.72;1.25;;;;;;;;;;5039668;28;20315;-70
2022/06/19 10:51:11;;;;;;;4.50;1.10;;;;;;;;;;5041147;28;20032;-70
2022/06/19 10:54:01;;;;;;;3.03;1.27;;;;;;;;;;5036679;28;20104;-68
2022/06/19 10:56:26;;;;;;;3.47;1.00;;;;;;;;;;5036257;28;20013;-71
2022/06/19 10:58:51;;;;;;;4.53;1.00;;;;;;;;;;5047383;28;20036;-71
2022/06/19 11:04:10;;;;;;;2.17;0.90;;;;;;;;;;5040104;28;20035;-71
2022/06/19 11:06:49;;;;;;;4.38;1.10;;;;;;;;;;5043541;28;20017;-70
2022/06/19 11:09:29;;;;;;;5.65;1.60;;;;;;;;;;5044660;28;20116;-71
2022/06/19 11:11:56;;;;;;;4.10;1.63;;;;;;;;;;5044312;28;20009;-70
2022/06/19 11:14:27;;;;;;;2.72;0.88;;;;;;;;;;5041886;28;20029;-70
2022/06/19 11:17:00;;;;;;;6.82;1.55;;;;;;;;;;5035890;28;20811;-71
2022/06/19 11:19:30;;;;;;;5.65;1.40;;;;;;;;;;5039901;28;20017;-68
2022/06/19 11:21:55;;;;;;;5.78;1.63;;;;;;;;;;5045900;28;20363;-70
2022/06/19 11:24:26;;;;;;;2.97;1.20;;;;;;;;;;5045531;28;20024;-69
2022/06/19 11:26:51;;;;;;;2.63;1.17;;;;;;;;;;5045579;28;20376;-71
2022/06/19 11:29:19;;;;;;;3.80;1.25;;;;;;;;;;5041695;28;20025;-72
2022/06/19 11:32:23;;;;;;;5.90;1.25;;;;;;;;;;5046489;28;20277;-69
2022/06/19 11:35:14;;;;;;;4.70;1.30;;;;;;;;;;4961183;28;20041;-72
2022/06/19 11:37:55;;;;;;;3.95;1.23;;;;;;;;;;4980958;28;20041;-72
2022/06/19 11:40:28;;;;;;;4.28;1.80;;;;;;;;;;5027281;28;20067;-70
2022/06/19 11:42:54;;;;;;;5.80;1.33;;;;;;;;;;5040267;28;20025;-70
2022/06/19 11:45:21;;;;;;;5.80;1.50;;;;;;;;;;5042238;28;20055;-71
2022/06/19 11:47:52;;;;;;;5.28;1.20;;;;;;;;;;5047497;28;20025;-71
2022/06/19 11:50:20;;;;;;;5.70;1.98;;;;;;;;;;5046220;28;20021;-69
2022/06/19 11:53:05;;;;;;;6.53;1.80;;;;;;;;;;5047411;28;20033;-69
2022/06/19 11:55:32;;;;;;;6.22;2.35;;;;;;;;;;5026029;28;20032;-71
2022/06/19 11:58:16;;;;;;;5.55;1.73;;;;;;;;;;5048290;28;20055;-68
2022/06/19 12:00:42;;;;;;;3.70;1.40;;;;;;;;;;5045041;28;20029;-70
2022/06/19 12:03:26;;;;;;;4.82;1.95;;;;;;;;;;5045963;28;20025;-72
2022/06/19 12:05:51;;;;;;;;;;;;;;;;;;5042174;28;20324;-66
2022/06/19 12:08:19;;;;;;;6.93;2.22;;;;;;;;;;5040882;28;20290;-66
2022/06/19 12:10:49;;;;;;;8.70;2.30;;;;;;;;;;5047413;28;20580;-71
2022/06/19 12:13:22;;;;;;;6.45;2.30;;;;;;;;;;5045606;28;20467;-72
2022/06/19 12:15:56;;;;;;;6.78;2.45;;;;;;;;;;5040178;28;20037;-71
2022/06/19 12:18:21;;;;;;;9.07;2.75;;;;;;;;;;5039445;28;20028;-70
2022/06/19 12:20:57;;;;;;;7.93;2.50;;;;;;;;;;5036644;28;20013;-69
2022/06/19 12:23:24;;;;;;;5.75;2.25;;;;;;;;;;5033242;28;20525;-71
2022/06/19 12:25:50;;;;;;;7.93;2.28;;;;;;;;;;5043570;28;20023;-68
2022/06/19 12:28:34;;;;;;;5.88;2.55;;;;;;;;;;5037811;28;20032;-71
2022/06/19 12:31:04;;;;;;;10.13;2.50;;;;;;;;;;5041215;28;20029;-70
2022/06/19 12:33:31;;;;;;;9.90;3.28;;;;;;;;;;5035999;28;20082;-66
2022/06/19 12:35:56;;;;;;;6.82;2.83;;;;;;;;;;5039403;28;20036;-70
2022/06/19 12:38:23;;;;;;;10.68;2.78;;;;;;;;;;5042162;28;20025;-68
2022/06/19 12:41:05;;;;;;;8.02;2.20;;;;;;;;;;5042474;28;20022;-69
2022/06/19 12:43:38;;;;;;;6.30;2.50;;;;;;;;;;5030973;28;20321;-69
2022/06/19 12:46:08;;;;;;;7.30;2.78;;;;;;;;;;5037376;28;20030;-70
2022/06/19 12:48:33;;;;;;;9.43;2.58;;;;;;;;;;5029554;28;20088;-68
2022/06/19 12:51:02;;;;;;;6.83;2.67;;;;;;;;;;5033093;28;20196;-69
2022/06/19 12:53:46;;;;;;;10.82;2.92;;;;;;;;;;5037408;28;20057;-68
2022/06/19 12:56:33;;;;;;;7.22;2.95;;;;;;;;;;5043003;28;20367;-68
2022/06/19 12:59:04;;;;;;;8.95;2.40;;;;;;;;;;5046429;28;20513;-69
2022/06/19 13:01:32;;;;;;;10.15;2.30;;;;;;;;;;5043088;28;20529;-69
2022/06/19 13:04:16;;;;;;;6.30;2.80;;;;;;;;;;5042263;28;20033;-69
2022/06/19 13:06:41;;;;;;;6.32;2.22;;;;;;;;;;5040440;28;20021;-69
2022/06/19 13:09:18;;;;;;;14.57;2.45;;;;;;;;;;5040970;28;20044;-69
2022/06/19 13:11:43;;;;;;;7.15;2.47;;;;;;;;;;5042574;28;20064;-68
2022/06/19 13:14:24;;;;;;;5.20;2.40;;;;;;;;;;5034657;28;20037;-70
2022/06/19 13:16:55;;;;;;;9.68;2.38;;;;;;;;;;5041293;28;20093;-69
2022/06/19 13:19:31;;;;;;;9.73;2.58;;;;;;;;;;5045180;28;20473;-73
2022/06/19 13:22:17;;;;;;;12.60;2.95;;;;;;;;;;5042408;28;20530;-69
2022/06/19 13:24:43;;;;;;;10.93;2.50;;;;;;;;;;5044613;28;20069;-70
2022/06/19 13:27:23;;;;;;;9.45;2.45;;;;;;;;;;5042908;28;20025;-68
2022/06/19 13:29:51;;;;;;;9.82;2.83;;;;;;;;;;5049838;28;20075;-72
2022/06/19 13:32:23;;;;;;;8.98;2.25;;;;;;;;;;5044865;28;20143;-69
2022/06/19 13:34:59;;;;;;;6.32;2.45;;;;;;;;;;5044258;28;20033;-69
2022/06/19 13:37:27;;;;;;;10.02;2.53;;;;;;;;;;5045209;28;20021;-69
2022/06/19 13:40:00;;;;;;;8.65;2.40;;;;;;;;;;5041252;28;20036;-70
2022/06/19 13:42:34;;;;;;;7.47;2.30;;;;;;;;;;5044432;28;20017;-71
2022/06/19 13:45:15;;;;;;;4.22;2.40;;;;;;;;;;5038291;28;20112;-69
2022/06/19 13:47:49;;;;;;;9.07;2.78;;;;;;;;;;5098442;22;20150;-70
2022/06/19 13:50:14;;;;;;;7.18;2.88;;;;;;;;;;5085761;28;20028;-70
2022/06/19 13:52:54;;;;;;;5.50;1.98;;;;;;;;;;5090530;28;20027;-69
2022/06/19 13:55:23;;;;;;;8.80;2.00;;;;;;;;;;5064966;28;20355;-71
2022/06/19 13:57:51;;;;;;;5.53;2.75;;;;;;;;;;5086340;28;20465;-71
2022/06/19 14:00:26;;;;;;;6.13;1.90;;;;;;;;;;5083501;28;20020;-69
2022/06/19 14:02:51;;;;;;;5.85;2.15;;;;;;;;;;5086598;28;20038;-71
2022/06/19 14:05:26;;;;;;;8.88;2.30;;;;;;;;;;5088148;28;20020;-70
2022/06/19 14:08:07;;;;;;;8.70;2.42;;;;;;;;;;5079841;28;20024;-71
2022/06/19 14:10:57;;;;;;;8.95;2.65;;;;;;;;;;5081040;28;20483;-69
2022/06/19 14:13:22;;;;;;;6.78;2.50;;;;;;;;;;5079667;28;20040;-69
2022/06/19 14:15:59;;;;;;;5.60;2.28;;;;;;;;;;5063116;28;20031;-69
2022/06/19 14:18:50;;;;;;;7.50;2.72;;;;;;;;;;5085640;28;20129;-70
2022/06/19 14:21:34;;;;;;;5.68;2.40;;;;;;;;;;5050612;28;20091;-70
2022/06/19 14:24:03;;;;;;;10.43;2.00;;;;;;;;;;5080278;28;20043;-70
2022/06/19 14:26:48;;;;;;;6.35;2.80;;;;;;;;;;5083489;28;20523;-71
2022/06/19 14:29:28;;;;;;;9.80;2.75;;;;;;;;;;5078071;28;20016;-70
2022/06/19 14:31:54;;;;;;;9.05;2.38;;;;;;;;;;5081495;28;20020;-71
2022/06/19 14:34:38;;;;;;;9.18;2.53;;;;;;;;;;5077903;28;20033;-70
2022/06/19 14:37:22;;;;;;;5.22;2.42;;;;;;;;;;5077474;28;20020;-70
2022/06/19 14:39:48;;;;;;;6.43;2.25;;;;;;;;;;5076785;28;20373;-71
2022/06/19 14:42:14;;;;;;;14.85;3.58;;;;;;;;;;5078167;28;20043;-70
2022/06/19 14:44:44;;;;;;;11.63;2.80;;;;;;;;;;5079455;28;20103;-70
2022/06/19 14:47:23;;;;;;;4.30;2.35;;;;;;;;;;5081082;28;20055;-71
2022/06/19 14:50:07;;;;;;;11.68;2.42;;;;;;;;;;5081152;28;20104;-71
2022/06/19 14:52:35;;;;;;;5.80;2.50;;;;;;;;;;5083436;28;20039;-71
2022/06/19 14:55:09;;;;;;;4.40;2.22;;;;;;;;;;5079819;28;20123;-72
2022/06/19 14:57:40;;;;;;;6.22;2.15;;;;;;;;;;5079510;28;20035;-72
2022/06/19 15:00:11;;;;;;;6.57;1.92;;;;;;;;;;5082195;28;20048;-72